La Belle Poule — FBPU — position and weather

sailwx.info

Track history (hours):
 
Tides and Currents Weather Stations Pressure Air Temp Water Temp Dewpoint Dewpoint Depression Visibility Wind Speed Wind Dir Waves Ship Positions

La Belle Poule (France)

Ship's website: http://www.defense.gouv.fr/english/portail-defense

Last reported at 2019-Oct-17 14:54 UTC. Time now 2019-Oct-22 23:50 UTC.
Position N 48°23' W 004°30'.

Length 37 m; draft 3.6 m.

Type: Sailing vessel. MMSI: 228796000.

Date/timePositionNaut miles runAvg speedWind from/ knotsBaromVisibWave heightAir tempDewpointWater temp
2019-Oct-17 14:54N 48°23' W 004°30'0 0.0
2019-Oct-17 14:30N 48°23' W 004°30'0 0.0
2019-Oct-17 14:00N 48°23' W 004°30'0 0.1
2019-Oct-17 13:30N 48°23' W 004°30'1 1.2
2019-Oct-17 13:00N 48°22' W 004°30'1 2.2
2019-Oct-17 12:30N 48°21' W 004°30'3 5.8
2019-Oct-17 12:00N 48°19' W 004°28'3 5.2
2019-Oct-17 11:30N 48°19' W 004°32'0 0.4
2019-Oct-17 11:00N 48°20' W 004°32'0 0.0
2019-Oct-17 10:31N 48°20' W 004°32'0 0.0
2019-Oct-17 10:00N 48°20' W 004°32'2 3.1
2019-Oct-17 09:30N 48°21' W 004°30'1 1.1
2019-Oct-17 09:00N 48°21' W 004°30'1 1.8
2019-Oct-17 08:31N 48°21' W 004°28'2 0.1
2019-Oct-16 14:27N 48°23' W 004°30'0 0.0
2019-Oct-16 14:00N 48°23' W 004°30'0 0.3
2019-Oct-16 13:30N 48°23' W 004°30'0 0.4
2019-Oct-16 13:00N 48°23' W 004°30'0 0.8
2019-Oct-16 12:31N 48°22' W 004°30'1 1.2
2019-Oct-16 12:00N 48°23' W 004°29'0 0.1
2019-Oct-16 11:30N 48°23' W 004°29'0 0.0
2019-Oct-16 11:01N 48°23' W 004°29'0 0.0
2019-Oct-16 10:30N 48°23' W 004°29'0 0.0
2019-Oct-15 14:10N 48°23' W 004°30'0 0.0
2019-Oct-15 14:01N 48°23' W 004°30'0 0.0
2019-Oct-15 13:30N 48°23' W 004°30'0 0.0
2019-Oct-15 13:00N 48°23' W 004°30'0 0.0
2019-Oct-15 12:30N 48°23' W 004°30'0 0.1
2019-Oct-15 12:00N 48°23' W 004°30'2 4.4
2019-Oct-15 11:30N 48°21' W 004°30'2 3.4
2019-Oct-15 11:00N 48°20' W 004°32'0 0.0
2019-Oct-15 10:31N 48°20' W 004°32'0 0.0
2019-Oct-15 10:01N 48°20' W 004°32'0 0.2
2019-Oct-15 09:30N 48°20' W 004°32'1 1.5
2019-Oct-15 09:00N 48°20' W 004°31'1 1.7
2019-Oct-15 08:30N 48°21' W 004°32'1 2.2
2019-Oct-15 08:00N 48°21' W 004°33'2 4.1
2019-Oct-15 07:30N 48°19' W 004°35'2 4.3
2019-Oct-15 07:00N 48°17' W 004°35'0 0.2
2019-Oct-15 06:31N 48°17' W 004°35'0 0.0
2019-Oct-14 23:47N 48°17' W 004°35'0 0.0
2019-Oct-14 23:31N 48°17' W 004°35'0 0.0
2019-Oct-14 23:00N 48°17' W 004°35'0 0.0
2019-Oct-14 22:31N 48°17' W 004°35'0 0.0
2019-Oct-14 22:00N 48°17' W 004°35'0 0.0
2019-Oct-14 21:30N 48°17' W 004°35'0 0.0
2019-Oct-14 21:01N 48°17' W 004°35'0 0.0
2019-Oct-14 20:30N 48°17' W 004°35'0 0.0
2019-Oct-14 20:01N 48°17' W 004°35'0 0.0
2019-Oct-14 19:30N 48°17' W 004°35'0 0.0
2019-Oct-14 19:00N 48°17' W 004°35'0 0.0
2019-Oct-14 18:31N 48°17' W 004°35'0 0.0
2019-Oct-14 18:01N 48°17' W 004°35'0 0.0
2019-Oct-14 17:30N 48°17' W 004°35'0 0.0
2019-Oct-14 17:00N 48°17' W 004°35'0 0.0
2019-Oct-14 16:30N 48°17' W 004°35'0 0.0
2019-Oct-14 16:00N 48°17' W 004°35'0 0.0
2019-Oct-14 15:30N 48°17' W 004°35'0 0.4
2019-Oct-14 15:01N 48°17' W 004°35'1 2.2
2019-Oct-14 14:31N 48°18' W 004°36'  
2019-Oct-09 13:56N 48°23' W 004°30'0 0.0
2019-Oct-09 13:30N 48°23' W 004°30'1 1.3
2019-Oct-09 13:01N 48°22' W 004°30'1 2.6
2019-Oct-09 12:31N 48°21' W 004°30'2 4.6
2019-Oct-09 12:01N 48°20' W 004°28'1 2.6
2019-Oct-09 11:30N 48°20' W 004°26'0 0.0
2019-Oct-09 11:00N 48°20' W 004°26'0 0.0
2019-Oct-09 10:30N 48°20' W 004°26'0 0.0
2019-Oct-09 10:00N 48°20' W 004°26'0 0.0
2019-Oct-09 09:30N 48°20' W 004°26'0 0.8
2019-Oct-09 09:00N 48°19' W 004°26'0 0.2
2019-Oct-09 08:31N 48°19' W 004°26'2 3.0
2019-Oct-09 07:56N 48°20' W 004°28'3 0.2
2019-Oct-08 14:20N 48°23' W 004°30'0 0.0
2019-Oct-08 14:00N 48°23' W 004°30'0 0.0
2019-Oct-08 13:30N 48°23' W 004°30'1 1.2
2019-Oct-08 13:01N 48°22' W 004°30'2 4.6
2019-Oct-08 12:31N 48°20' W 004°30'2 4.8
2019-Oct-08 12:00N 48°18' W 004°32'0 0.6
2019-Oct-08 11:30N 48°18' W 004°32'0 0.0
2019-Oct-08 11:00N 48°18' W 004°32'0 0.0
2019-Oct-08 10:30N 48°18' W 004°32'0 0.0
2019-Oct-08 10:00N 48°18' W 004°32'0 0.2
2019-Oct-08 09:30N 48°18' W 004°32'3 5.2
2019-Oct-08 09:00N 48°20' W 004°29'1 2.3
2019-Oct-08 08:30N 48°19' W 004°28'2 4.1
2019-Oct-08 08:00N 48°21' W 004°29'2 3.0
2019-Oct-08 07:30N 48°23' W 004°30'0 0.9
2019-Oct-08 07:01N 48°23' W 004°30'  
Track history (hours):
 
Tides and Currents Weather Stations Pressure Air Temp Water Temp Dewpoint Dewpoint Depression Visibility Wind Speed Wind Dir Waves Ship Positions

La Belle Poule (France)

Ship's website: http://www.defense.gouv.fr/english/portail-defense

Last reported at 2019-Oct-17 14:54 UTC. Time now 2019-Oct-22 23:50 UTC.
Position N 48°23' W 004°30'.

Length 37 m; draft 3.6 m.

Type: Sailing vessel. MMSI: 228796000.

Date/timePositionNaut miles runAvg speedWind from/ knotsBaromVisibWave heightAir tempDewpointWater temp
2019-Oct-17 14:54N 48°23' W 004°30'0 0.0
2019-Oct-17 14:30N 48°23' W 004°30'0 0.0
2019-Oct-17 14:00N 48°23' W 004°30'0 0.1
2019-Oct-17 13:30N 48°23' W 004°30'1 1.2
2019-Oct-17 13:00N 48°22' W 004°30'1 2.2
2019-Oct-17 12:30N 48°21' W 004°30'3 5.8
2019-Oct-17 12:00N 48°19' W 004°28'3 5.2
2019-Oct-17 11:30N 48°19' W 004°32'0 0.4
2019-Oct-17 11:00N 48°20' W 004°32'0 0.0
2019-Oct-17 10:31N 48°20' W 004°32'0 0.0
2019-Oct-17 10:00N 48°20' W 004°32'2 3.1
2019-Oct-17 09:30N 48°21' W 004°30'1 1.1
2019-Oct-17 09:00N 48°21' W 004°30'1 1.8
2019-Oct-17 08:31N 48°21' W 004°28'2 0.1
2019-Oct-16 14:27N 48°23' W 004°30'0 0.0
2019-Oct-16 14:00N 48°23' W 004°30'0 0.3
2019-Oct-16 13:30N 48°23' W 004°30'0 0.4
2019-Oct-16 13:00N 48°23' W 004°30'0 0.8
2019-Oct-16 12:31N 48°22' W 004°30'1 1.2
2019-Oct-16 12:00N 48°23' W 004°29'0 0.1
2019-Oct-16 11:30N 48°23' W 004°29'0 0.0
2019-Oct-16 11:01N 48°23' W 004°29'0 0.0
2019-Oct-16 10:30N 48°23' W 004°29'0 0.0
2019-Oct-15 14:10N 48°23' W 004°30'0 0.0
2019-Oct-15 14:01N 48°23' W 004°30'0 0.0
2019-Oct-15 13:30N 48°23' W 004°30'0 0.0
2019-Oct-15 13:00N 48°23' W 004°30'0 0.0
2019-Oct-15 12:30N 48°23' W 004°30'0 0.1
2019-Oct-15 12:00N 48°23' W 004°30'2 4.4
2019-Oct-15 11:30N 48°21' W 004°30'2 3.4
2019-Oct-15 11:00N 48°20' W 004°32'0 0.0
2019-Oct-15 10:31N 48°20' W 004°32'0 0.0
2019-Oct-15 10:01N 48°20' W 004°32'0 0.2
2019-Oct-15 09:30N 48°20' W 004°32'1 1.5
2019-Oct-15 09:00N 48°20' W 004°31'1 1.7
2019-Oct-15 08:30N 48°21' W 004°32'1 2.2
2019-Oct-15 08:00N 48°21' W 004°33'2 4.1
2019-Oct-15 07:30N 48°19' W 004°35'2 4.3
2019-Oct-15 07:00N 48°17' W 004°35'0 0.2
2019-Oct-15 06:31N 48°17' W 004°35'0 0.0
2019-Oct-14 23:47N 48°17' W 004°35'0 0.0
2019-Oct-14 23:31N 48°17' W 004°35'0 0.0
2019-Oct-14 23:00N 48°17' W 004°35'0 0.0
2019-Oct-14 22:31N 48°17' W 004°35'0 0.0
2019-Oct-14 22:00N 48°17' W 004°35'0 0.0
2019-Oct-14 21:30N 48°17' W 004°35'0 0.0
2019-Oct-14 21:01N 48°17' W 004°35'0 0.0
2019-Oct-14 20:30N 48°17' W 004°35'0 0.0
2019-Oct-14 20:01N 48°17' W 004°35'0 0.0
2019-Oct-14 19:30N 48°17' W 004°35'0 0.0
2019-Oct-14 19:00N 48°17' W 004°35'0 0.0
2019-Oct-14 18:31N 48°17' W 004°35'0 0.0
2019-Oct-14 18:01N 48°17' W 004°35'0 0.0
2019-Oct-14 17:30N 48°17' W 004°35'0 0.0
2019-Oct-14 17:00N 48°17' W 004°35'0 0.0
2019-Oct-14 16:30N 48°17' W 004°35'0 0.0
2019-Oct-14 16:00N 48°17' W 004°35'0 0.0
2019-Oct-14 15:30N 48°17' W 004°35'0 0.4
2019-Oct-14 15:01N 48°17' W 004°35'1 2.2
2019-Oct-14 14:31N 48°18' W 004°36'  
2019-Oct-09 13:56N 48°23' W 004°30'0 0.0
2019-Oct-09 13:30N 48°23' W 004°30'1 1.3
2019-Oct-09 13:01N 48°22' W 004°30'1 2.6
2019-Oct-09 12:31N 48°21' W 004°30'2 4.6
2019-Oct-09 12:01N 48°20' W 004°28'1 2.6
2019-Oct-09 11:30N 48°20' W 004°26'0 0.0
2019-Oct-09 11:00N 48°20' W 004°26'0 0.0
2019-Oct-09 10:30N 48°20' W 004°26'0 0.0
2019-Oct-09 10:00N 48°20' W 004°26'0 0.0
2019-Oct-09 09:30N 48°20' W 004°26'0 0.8
2019-Oct-09 09:00N 48°19' W 004°26'0 0.2
2019-Oct-09 08:31N 48°19' W 004°26'2 3.0
2019-Oct-09 07:56N 48°20' W 004°28'3 0.2
2019-Oct-08 14:20N 48°23' W 004°30'0 0.0
2019-Oct-08 14:00N 48°23' W 004°30'0 0.0
2019-Oct-08 13:30N 48°23' W 004°30'1 1.2
2019-Oct-08 13:01N 48°22' W 004°30'2 4.6
2019-Oct-08 12:31N 48°20' W 004°30'2 4.8
2019-Oct-08 12:00N 48°18' W 004°32'0 0.6
2019-Oct-08 11:30N 48°18' W 004°32'0 0.0
2019-Oct-08 11:00N 48°18' W 004°32'0 0.0
2019-Oct-08 10:30N 48°18' W 004°32'0 0.0
2019-Oct-08 10:00N 48°18' W 004°32'0 0.2
2019-Oct-08 09:30N 48°18' W 004°32'3 5.2
2019-Oct-08 09:00N 48°20' W 004°29'1 2.3
2019-Oct-08 08:30N 48°19' W 004°28'2 4.1
2019-Oct-08 08:00N 48°21' W 004°29'2 3.0
2019-Oct-08 07:30N 48°23' W 004°30'0 0.9
2019-Oct-08 07:01N 48°23' W 004°30'  

Dump ship's entire track history